Time;durP1;ratioP1;P1;durP2;ratioP2;P2;SDS_P1;SDS_P2;PMS_P1;PMS_P2;Temp;Humidity;BMP_temperature;BMP_pressure;BME280_temperature;BME280_humidity;BME280_pressure;Samples;Min_cycle;Max_cycle;Signal;HPM_P1;HPM_P2
2021/03/10 00:00:38;;;;;;;8.48;2.67;;;20.50;90.00;;;;;;4995576;28;20414;-70
2021/03/10 00:03:05;;;;;;;9.05;3.03;;;20.50;90.00;;;;;;4989129;28;20157;-70
2021/03/10 00:05:31;;;;;;;5.40;1.40;;;20.50;90.10;;;;;;4994194;28;20097;-70
2021/03/10 00:07:58;;;;;;;4.95;1.67;;;20.50;90.20;;;;;;4990798;28;20474;-70
2021/03/10 00:10:24;;;;;;;6.88;1.92;;;20.50;90.40;;;;;;4996154;28;20397;-70
2021/03/10 00:12:51;;;;;;;4.20;1.23;;;20.50;90.60;;;;;;4990469;28;20493;-70
2021/03/10 00:15:17;;;;;;;6.95;2.20;;;20.50;90.60;;;;;;4990245;28;20097;-70
2021/03/10 00:17:44;;;;;;;6.47;1.75;;;20.50;90.60;;;;;;4993908;28;20018;-70
2021/03/10 00:20:13;;;;;;;3.28;1.50;;;20.50;90.60;;;;;;4996784;28;20045;-70
2021/03/10 00:22:40;;;;;;;6.20;1.67;;;20.50;90.60;;;;;;4991053;28;20053;-70
2021/03/10 00:25:08;;;;;;;9.13;1.88;;;20.50;90.60;;;;;;4992930;28;20030;-70
2021/03/10 00:27:34;;;;;;;5.00;1.33;;;20.50;90.70;;;;;;4995176;28;20049;-70
2021/03/10 00:30:04;;;;;;;9.63;3.08;;;20.50;90.80;;;;;;4990596;28;20410;-70
2021/03/10 00:32:30;;;;;;;8.35;1.67;;;20.50;90.80;;;;;;4997115;28;20014;-70
2021/03/10 00:34:57;;;;;;;7.75;1.83;;;20.50;90.80;;;;;;4987658;28;20023;-70
2021/03/10 00:37:24;;;;;;;11.73;2.80;;;20.60;90.70;;;;;;4996556;28;20489;-69
2021/03/10 00:39:52;;;;;;;7.05;2.20;;;20.60;90.90;;;;;;4988080;28;20038;-70
2021/03/10 00:42:18;;;;;;;7.53;2.40;;;20.60;91.00;;;;;;4993097;28;20026;-70
2021/03/10 00:44:45;;;;;;;9.40;2.65;;;20.50;91.00;;;;;;4991509;28;20359;-70
2021/03/10 00:47:13;;;;;;;11.38;2.80;;;20.60;91.10;;;;;;4993349;28;20023;-71
2021/03/10 00:49:41;;;;;;;10.75;3.83;;;20.60;91.00;;;;;;4991443;28;20026;-71
2021/03/10 00:52:08;;;;;;;9.43;3.05;;;20.60;91.10;;;;;;4991423;28;20034;-70
2021/03/10 00:54:35;;;;;;;13.77;2.78;;;20.60;91.10;;;;;;4993453;28;20046;-70
2021/03/10 00:57:02;;;;;;;8.85;2.58;;;20.60;91.10;;;;;;4993536;28;20108;-70
2021/03/10 00:59:28;;;;;;;8.23;2.05;;;20.60;91.10;;;;;;4993169;28;20022;-70
2021/03/10 01:01:55;;;;;;;11.20;2.42;;;20.60;91.00;;;;;;4988932;28;20044;-70
2021/03/10 01:04:21;;;;;;;9.52;2.55;;;20.60;90.90;;;;;;4993223;28;20025;-70
2021/03/10 01:06:48;;;;;;;7.85;2.53;;;20.60;90.90;;;;;;4989951;28;20026;-70
2021/03/10 01:09:16;;;;;;;6.78;2.10;;;20.60;91.00;;;;;;4996319;28;20441;-70
2021/03/10 01:11:43;;;;;;;11.90;2.17;;;20.70;91.00;;;;;;4991623;28;20026;-70
2021/03/10 01:14:09;;;;;;;7.40;2.65;;;20.70;91.00;;;;;;4995991;28;20453;-70
2021/03/10 01:16:36;;;;;;;9.38;2.80;;;20.70;91.00;;;;;;4991223;28;20112;-70
2021/03/10 01:19:04;;;;;;;17.38;4.13;;;20.70;91.00;;;;;;4995269;28;20034;-70
2021/03/10 01:21:30;;;;;;;7.88;2.58;;;20.70;91.00;;;;;;4988810;28;20494;-70
2021/03/10 01:23:57;;;;;;;9.77;2.33;;;20.70;91.10;;;;;;4997101;28;20421;-70
2021/03/10 01:26:23;;;;;;;8.45;2.53;;;20.70;91.00;;;;;;4990454;28;20019;-69
2021/03/10 01:28:50;;;;;;;6.38;2.03;;;20.70;90.80;;;;;;4987744;28;20040;-69
2021/03/10 01:31:16;;;;;;;11.20;2.55;;;20.70;90.80;;;;;;4988005;28;20466;-70
2021/03/10 01:33:42;;;;;;;13.32;2.65;;;20.70;90.90;;;;;;4992576;28;20099;-69
2021/03/10 01:36:09;;;;;;;10.93;2.40;;;20.70;90.80;;;;;;4991114;28;20026;-70
2021/03/10 01:38:35;;;;;;;20.45;2.75;;;20.70;90.70;;;;;;4991738;28;20440;-70
2021/03/10 01:41:03;;;;;;;13.85;3.13;;;20.70;90.60;;;;;;4989580;28;20069;-70
2021/03/10 01:43:30;;;;;;;9.45;2.05;;;20.70;90.50;;;;;;4991375;28;20643;-70
2021/03/10 01:45:56;;;;;;;10.15;2.42;;;20.70;90.50;;;;;;4989912;28;20048;-70
2021/03/10 01:48:24;;;;;;;15.32;2.33;;;20.70;90.60;;;;;;4990767;28;20044;-70
2021/03/10 01:50:51;;;;;;;10.60;2.90;;;20.70;90.60;;;;;;4991933;28;20046;-70
2021/03/10 01:53:18;;;;;;;6.70;2.28;;;20.70;90.60;;;;;;4992644;28;20018;-69
2021/03/10 01:55:45;;;;;;;9.38;2.22;;;20.60;90.80;;;;;;4995706;28;20023;-69
2021/03/10 01:58:13;;;;;;;12.13;2.35;;;20.60;91.00;;;;;;4988855;28;20033;-70
2021/03/10 02:00:40;;;;;;;8.35;2.63;;;20.60;91.00;;;;;;4992741;28;20066;-70
2021/03/10 02:03:06;;;;;;;11.68;2.25;;;20.60;91.10;;;;;;4989907;28;20023;-70
2021/03/10 02:05:33;;;;;;;11.85;2.50;;;20.60;91.10;;;;;;4992646;28;20049;-70
2021/03/10 02:08:24;;;;;;;8.88;3.42;;;20.60;91.10;;;;;;4988107;28;20022;-70
2021/03/10 02:11:15;;;;;;;9.27;2.40;;;20.60;91.20;;;;;;4991167;28;20050;-70
2021/03/10 02:13:55;;;;;;;8.27;1.98;;;20.60;91.20;;;;;;4992120;28;20029;-70
2021/03/10 02:16:38;;;;;;;6.40;2.22;;;20.60;91.30;;;;;;4988256;28;20485;-70
2021/03/10 02:19:26;;;;;;;7.43;1.92;;;20.60;91.20;;;;;;4991436;28;20050;-70
2021/03/10 02:22:07;;;;;;;9.18;2.40;;;20.60;91.20;;;;;;4991211;28;20053;-70
2021/03/10 02:24:56;;;;;;;7.57;2.55;;;20.60;91.10;;;;;;5004394;28;20545;-70
2021/03/10 02:27:47;;;;;;;10.25;2.00;;;20.60;91.30;;;;;;5006599;28;20029;-70
2021/03/10 02:30:18;;;;;;;7.05;2.67;;;20.60;91.50;;;;;;4991014;28;20026;-70
2021/03/10 02:32:56;;;;;;;5.07;2.30;;;20.60;91.40;;;;;;4994326;28;20104;-70
2021/03/10 02:35:26;;;;;;;6.65;2.55;;;20.60;91.50;;;;;;4991967;28;20022;-70
2021/03/10 02:37:55;;;;;;;5.68;1.63;;;20.50;91.50;;;;;;4990892;28;20034;-70
2021/03/10 02:40:26;;;;;;;6.65;1.92;;;20.50;91.40;;;;;;4994372;28;20045;-70
2021/03/10 02:42:53;;;;;;;6.13;1.85;;;20.60;91.40;;;;;;4991238;28;20030;-70
2021/03/10 02:45:22;;;;;;;4.40;1.35;;;20.60;91.40;;;;;;4993146;28;20044;-70
2021/03/10 02:47:50;;;;;;;7.75;2.00;;;20.60;91.40;;;;;;4988579;28;20030;-70
2021/03/10 02:50:17;;;;;;;3.83;1.15;;;20.50;91.30;;;;;;4989979;28;20481;-70
2021/03/10 02:52:44;;;;;;;5.35;1.25;;;20.60;91.20;;;;;;4989386;28;20027;-70
2021/03/10 02:55:11;;;;;;;4.63;1.50;;;20.50;91.00;;;;;;4988317;28;20108;-70
2021/03/10 02:57:38;;;;;;;6.75;2.28;;;20.50;91.10;;;;;;4989240;28;20030;-69
2021/03/10 03:00:18;;;;;;;5.00;1.05;;;20.50;91.10;;;;;;4992258;28;20486;-70
2021/03/10 03:02:44;;;;;;;2.67;1.08;;;20.50;91.10;;;;;;4989251;28;20034;-70
2021/03/10 03:05:11;;;;;;;7.93;2.17;;;20.50;91.10;;;;;;5010354;28;20029;-71
2021/03/10 03:07:43;;;;;;;5.13;1.10;;;20.50;91.00;;;;;;4988794;28;20033;-70
2021/03/10 03:10:50;;;;;;;3.88;1.75;;;20.40;91.00;;;;;;4987287;28;20031;-71
2021/03/10 03:13:18;;;;;;;6.88;1.05;;;20.40;91.00;;;;;;4989859;28;20432;-70
2021/03/10 03:15:50;;;;;;;2.45;0.80;;;20.40;90.90;;;;;;4986814;28;20117;-70
2021/03/10 03:18:17;;;;;;;2.35;0.80;;;20.40;91.00;;;;;;4993109;28;20056;-70
2021/03/10 03:20:43;;;;;;;3.70;0.95;;;20.30;91.20;;;;;;4985976;28;20097;-70
2021/03/10 03:23:10;;;;;;;3.15;1.95;;;20.30;91.10;;;;;;4989034;28;20034;-70
2021/03/10 03:25:41;;;;;;;4.15;1.05;;;20.30;91.20;;;;;;4997870;28;20029;-71
2021/03/10 03:28:11;;;;;;;4.00;0.90;;;20.20;91.30;;;;;;4992784;28;20014;-70
2021/03/10 03:30:39;;;;;;;2.55;0.90;;;20.20;91.30;;;;;;4989035;28;20466;-70
2021/03/10 03:33:16;;;;;;;2.22;0.90;;;20.20;91.30;;;;;;4986746;28;20026;-70
2021/03/10 03:35:45;;;;;;;4.97;1.25;;;20.20;91.30;;;;;;4993385;28;20045;-70
2021/03/10 03:38:12;;;;;;;3.65;0.77;;;20.20;91.30;;;;;;4993395;28;20019;-70
2021/03/10 03:40:39;;;;;;;2.63;0.90;;;20.20;91.30;;;;;;4997110;28;20033;-70
2021/03/10 03:43:12;;;;;;;2.17;0.68;;;20.20;91.40;;;;;;4995343;28;20366;-70
2021/03/10 03:45:39;;;;;;;5.97;1.10;;;20.20;91.40;;;;;;4995905;28;20392;-70
2021/03/10 03:48:06;;;;;;;2.70;0.77;;;20.20;91.40;;;;;;4997360;28;20010;-70
2021/03/10 03:50:34;;;;;;;1.45;0.98;;;20.20;91.30;;;;;;4995802;28;20026;-70
2021/03/10 03:53:01;;;;;;;3.78;1.00;;;20.20;91.30;;;;;;4994032;28;20405;-70
2021/03/10 03:55:27;;;;;;;53.63;47.70;;;20.20;91.20;;;;;;5001508;28;20705;-71
2021/03/10 03:57:54;;;;;;;66.00;58.72;;;20.20;91.20;;;;;;5002239;28;20490;-70
2021/03/10 04:00:26;;;;;;;12.20;5.05;;;20.20;91.20;;;;;;4997566;28;20100;-70
2021/03/10 04:02:53;;;;;;;2.65;0.80;;;20.30;91.20;;;;;;4997005;28;20038;-70
2021/03/10 04:05:20;;;;;;;2.30;0.68;;;20.30;91.00;;;;;;4997759;28;20030;-70
2021/03/10 04:08:05;;;;;;;3.60;0.70;;;20.30;91.00;;;;;;4995978;28;20101;-70
2021/03/10 04:10:34;;;;;;;2.42;0.70;;;20.30;91.10;;;;;;4999290;28;20025;-70
2021/03/10 04:13:02;;;;;;;0.63;0.50;;;20.30;91.00;;;;;;4991949;28;20026;-70
2021/03/10 04:15:31;;;;;;;6.70;0.77;;;20.30;90.90;;;;;;5000843;28;20018;-69
2021/03/10 04:17:58;;;;;;;2.22;0.50;;;20.30;91.00;;;;;;4996875;28;20057;-71
2021/03/10 04:20:25;;;;;;;15.25;13.13;;;20.30;90.90;;;;;;4994604;28;20054;-74
2021/03/10 04:22:52;;;;;;;37.97;33.95;;;20.30;91.00;;;;;;4996525;28;20117;-72
2021/03/10 04:25:58;;;;;;;12.27;9.25;;;20.20;91.00;;;;;;4996110;28;20022;-71
2021/03/10 04:29:04;;;;;;;5.47;1.23;;;20.20;91.20;;;;;;5001414;28;20474;-79
2021/03/10 04:32:10;;;;;;;2.47;0.90;;;20.20;91.20;;;;;;4993308;28;20438;-73
2021/03/10 04:35:19;;;;;;;2.80;1.42;;;20.20;91.50;;;;;;4996588;28;20568;-71
2021/03/10 04:38:25;;;;;;;2.55;0.75;;;20.30;91.60;;;;;;4997186;28;20023;-70
2021/03/10 04:41:31;;;;;;;2.95;0.90;;;20.30;91.60;;;;;;4996236;28;20035;-69
2021/03/10 04:44:37;;;;;;;3.92;1.33;;;20.30;91.70;;;;;;4993550;28;20106;-70
2021/03/10 04:47:43;;;;;;;4.90;1.20;;;20.30;91.80;;;;;;4998367;28;20448;-71
2021/03/10 04:50:49;;;;;;;3.95;0.73;;;20.30;91.90;;;;;;4994666;28;20490;-70
2021/03/10 04:53:16;;;;;;;3.20;1.00;;;20.30;91.90;;;;;;4986025;28;20069;-71
2021/03/10 04:55:42;;;;;;;5.65;0.73;;;20.20;92.00;;;;;;4985675;28;20504;-69
2021/03/10 04:58:09;;;;;;;1.73;0.55;;;20.30;92.10;;;;;;4990380;28;20017;-70
2021/03/10 05:00:36;;;;;;;10.55;1.00;;;20.30;92.00;;;;;;4980191;28;20030;-70
2021/03/10 05:03:03;;;;;;;2.63;0.50;;;20.30;92.10;;;;;;4986736;28;20521;-70
2021/03/10 05:05:30;;;;;;;1.95;0.80;;;20.30;92.10;;;;;;4981802;28;20113;-70
2021/03/10 05:07:56;;;;;;;2.78;0.70;;;20.30;92.00;;;;;;4985794;28;20117;-70
2021/03/10 05:10:23;;;;;;;2.65;0.57;;;20.30;92.10;;;;;;4986937;28;20248;-70
2021/03/10 05:12:49;;;;;;;1.92;1.15;;;20.30;92.00;;;;;;4984115;28;20066;-70
2021/03/10 05:15:16;;;;;;;1.10;0.70;;;20.30;91.90;;;;;;4984238;28;21378;-70
2021/03/10 05:17:43;;;;;;;2.15;0.55;;;20.30;92.00;;;;;;4986057;28;20030;-70
2021/03/10 05:20:11;;;;;;;1.55;0.57;;;20.30;92.00;;;;;;4985920;28;20057;-70
2021/03/10 05:22:38;;;;;;;3.90;0.70;;;20.30;91.90;;;;;;4985926;28;20409;-70
2021/03/10 05:25:07;;;;;;;2.95;0.90;;;20.30;92.00;;;;;;4985612;28;20371;-70
2021/03/10 05:27:37;;;;;;;2.85;1.33;;;20.20;91.90;;;;;;4986417;28;20061;-70
2021/03/10 05:30:06;;;;;;;4.10;1.23;;;20.30;92.00;;;;;;4986133;28;20018;-70
2021/03/10 05:32:33;;;;;;;2.05;1.67;;;20.20;92.30;;;;;;4985615;28;20465;-70
2021/03/10 05:35:00;;;;;;;2.70;0.85;;;20.30;92.10;;;;;;4986851;28;20046;-70
2021/03/10 05:37:27;;;;;;;2.85;1.27;;;20.30;92.10;;;;;;4986254;28;20033;-69
2021/03/10 05:40:33;;;;;;;4.60;1.15;;;20.30;92.40;;;;;;4985623;28;20061;-69
2021/03/10 05:43:39;;;;;;;4.75;1.55;;;20.30;92.10;;;;;;4985840;28;20023;-70
2021/03/10 05:46:45;;;;;;;5.15;1.48;;;20.30;92.20;;;;;;4986757;28;20026;-70
2021/03/10 05:49:51;;;;;;;3.88;1.30;;;20.30;92.20;;;;;;4987093;28;20030;-70
2021/03/10 05:52:57;;;;;;;6.35;1.70;;;20.30;92.30;;;;;;4986037;28;20517;-70
2021/03/10 05:56:03;;;;;;;4.95;1.90;;;20.30;92.40;;;;;;4987158;28;20026;-70
2021/03/10 05:59:18;;;;;;;9.82;1.88;;;20.40;92.60;;;;;;4983464;28;20037;-70
2021/03/10 06:02:25;;;;;;;6.55;1.83;;;20.40;92.50;;;;;;4981734;28;20126;-70
2021/03/10 06:05:40;;;;;;;4.82;1.45;;;20.40;92.60;;;;;;4985120;28;20062;-70
2021/03/10 06:08:46;;;;;;;5.60;1.85;;;20.30;92.70;;;;;;4985433;28;20054;-70
2021/03/10 06:11:52;;;;;;;7.72;1.92;;;20.40;92.70;;;;;;4986163;28;20038;-70
2021/03/10 06:14:58;;;;;;;13.10;1.77;;;20.40;92.90;;;;;;4988462;28;20109;-70
2021/03/10 06:18:04;;;;;;;7.93;2.33;;;20.40;92.90;;;;;;4984992;28;20030;-70
2021/03/10 06:21:10;;;;;;;8.63;2.33;;;20.50;93.00;;;;;;4987570;28;20495;-70
2021/03/10 06:24:29;;;;;;;4.72;2.03;;;20.50;93.00;;;;;;4984615;28;20041;-72
2021/03/10 06:27:35;;;;;;;9.02;2.15;;;20.50;92.80;;;;;;4976933;28;20582;-71
2021/03/10 06:30:30;;;;;;;26.50;20.85;;;20.50;92.80;;;;;;4986782;28;20030;-72
2021/03/10 06:32:56;;;;;;;6.03;3.97;;;20.50;93.00;;;;;;4983061;28;20048;-71
2021/03/10 06:35:30;;;;;;;8.45;2.15;;;20.50;93.00;;;;;;4979783;28;20503;-71
2021/03/10 06:38:14;;;;;;;6.80;1.60;;;20.50;92.80;;;;;;4987456;28;20045;-71
2021/03/10 06:40:52;;;;;;;4.50;1.70;;;20.50;92.80;;;;;;4983749;28;20081;-71
2021/03/10 06:43:19;;;;;;;6.60;1.40;;;20.50;92.60;;;;;;4985507;28;20117;-71
2021/03/10 06:45:46;;;;;;;7.95;1.60;;;20.50;92.50;;;;;;4984735;28;20100;-71
2021/03/10 06:48:21;;;;;;;6.03;1.83;;;20.50;92.50;;;;;;4985256;28;20024;-71
2021/03/10 06:50:48;;;;;;;3.55;1.05;;;20.50;92.60;;;;;;4981899;28;20023;-71
2021/03/10 06:53:15;;;;;;;4.38;1.42;;;20.50;92.70;;;;;;4983614;28;20023;-71
2021/03/10 06:55:46;;;;;;;8.07;1.85;;;20.50;92.60;;;;;;4984097;28;20065;-71
2021/03/10 06:58:24;;;;;;;7.95;2.53;;;20.50;92.60;;;;;;4984436;28;20038;-70
2021/03/10 07:01:03;;;;;;;8.45;1.90;;;20.50;92.70;;;;;;4984743;28;20401;-72
2021/03/10 07:03:30;;;;;;;4.38;1.30;;;20.60;92.50;;;;;;4985374;28;20075;-71
2021/03/10 07:05:58;;;;;;;4.93;1.77;;;20.50;92.40;;;;;;4996477;28;20691;-71
2021/03/10 07:08:27;;;;;;;6.18;1.27;;;20.50;92.50;;;;;;4985571;28;20039;-71
2021/03/10 07:10:53;;;;;;;6.20;1.67;;;20.50;92.70;;;;;;4982525;28;20298;-72
2021/03/10 07:13:21;;;;;;;5.30;1.52;;;20.50;92.60;;;;;;4983092;28;20889;-71
2021/03/10 07:15:51;;;;;;;4.70;1.77;;;20.50;92.70;;;;;;4986099;28;20011;-71
2021/03/10 07:18:19;;;;;;;7.65;1.92;;;20.50;92.60;;;;;;4984038;28;20022;-71
2021/03/10 07:20:46;;;;;;;5.50;1.67;;;20.50;92.60;;;;;;4986523;28;20038;-71
2021/03/10 07:23:16;;;;;;;4.30;1.10;;;20.50;92.60;;;;;;4988757;28;20153;-71
2021/03/10 07:25:44;;;;;;;3.30;0.90;;;20.50;92.40;;;;;;4988240;28;20054;-72
2021/03/10 07:28:53;;;;;;;2.63;1.23;;;20.50;92.30;;;;;;4986610;28;20030;-71
2021/03/10 07:31:25;;;;;;;3.50;0.80;;;20.50;92.40;;;;;;4986624;28;20113;-71
2021/03/10 07:33:56;;;;;;;9.82;1.15;;;20.50;92.40;;;;;;4990192;28;20034;-71
2021/03/10 07:36:45;;;;;;;1.92;1.05;;;20.50;92.30;;;;;;4986075;28;20492;-71
2021/03/10 07:39:32;;;;;;;2.40;0.98;;;20.50;92.30;;;;;;4987312;28;20034;-71
2021/03/10 07:42:16;;;;;;;3.88;1.08;;;20.50;92.20;;;;;;5002197;28;20081;-71
2021/03/10 07:44:42;;;;;;;3.03;1.17;;;20.50;92.10;;;;;;4987716;28;20073;-71
2021/03/10 07:47:14;;;;;;;5.32;1.17;;;20.60;92.10;;;;;;4985355;28;20019;-70
2021/03/10 07:49:42;;;;;;;6.95;3.70;;;20.60;92.10;;;;;;4987889;28;20027;-71
2021/03/10 07:52:10;;;;;;;4.38;1.73;;;20.60;92.20;;;;;;4989599;28;20023;-71
2021/03/10 07:54:38;;;;;;;3.83;0.85;;;20.60;92.10;;;;;;4988385;28;20425;-71
2021/03/10 07:57:15;;;;;;;4.22;1.10;;;20.60;92.10;;;;;;4983709;28;20031;-71
2021/03/10 07:59:57;;;;;;;2.72;1.17;;;20.60;92.30;;;;;;4987381;28;20022;-71
2021/03/10 08:02:26;;;;;;;3.13;1.10;;;20.60;92.40;;;;;;4986419;28;20041;-71
2021/03/10 08:05:02;;;;;;;1.95;1.08;;;20.70;92.40;;;;;;4985904;28;20489;-70
2021/03/10 08:07:31;;;;;;;3.00;0.90;;;20.70;92.30;;;;;;4985324;28;20026;-70
2021/03/10 08:09:58;;;;;;;4.55;0.85;;;20.70;92.40;;;;;;4987976;28;20120;-70
2021/03/10 08:12:39;;;;;;;3.70;0.90;;;20.70;92.50;;;;;;4985196;28;20054;-71
2021/03/10 08:15:07;;;;;;;3.13;0.98;;;20.70;92.60;;;;;;4985333;28;20901;-71
2021/03/10 08:17:34;;;;;;;0.60;0.55;;;20.70;92.50;;;;;;4986600;28;20120;-71
2021/03/10 08:20:06;;;;;;;1.63;0.85;;;20.70;92.50;;;;;;4983635;28;20055;-70
2021/03/10 08:22:35;;;;;;;1.50;0.98;;;20.70;92.60;;;;;;4982726;28;20030;-70
2021/03/10 08:25:04;;;;;;;1.02;0.68;;;20.70;92.50;;;;;;4987309;28;20014;-70
2021/03/10 08:27:36;;;;;;;2.88;1.23;;;20.70;92.60;;;;;;4979667;28;20026;-70
2021/03/10 08:30:07;;;;;;;4.18;0.90;;;20.70;92.60;;;;;;4984434;28;20027;-70
2021/03/10 08:32:34;;;;;;;2.72;0.80;;;20.70;92.60;;;;;;4991388;28;20049;-70
2021/03/10 08:35:20;;;;;;;6.20;3.42;;;20.70;92.70;;;;;;4994140;28;20100;-69
2021/03/10 08:38:00;;;;;;;1.75;0.90;;;20.70;92.60;;;;;;4988383;28;20049;-70
2021/03/10 08:40:29;;;;;;;2.15;0.63;;;20.70;92.50;;;;;;4988611;28;20034;-70
2021/03/10 08:42:57;;;;;;;1.58;0.90;;;20.70;92.60;;;;;;4986927;28;20105;-69
2021/03/10 08:45:35;;;;;;;1.85;0.60;;;20.70;92.50;;;;;;4991046;28;20058;-69
2021/03/10 08:48:04;;;;;;;2.42;1.02;;;20.70;92.50;;;;;;4987412;28;20374;-70
2021/03/10 08:50:34;;;;;;;1.98;0.85;;;20.70;92.50;;;;;;4986221;28;20093;-70
2021/03/10 08:53:01;;;;;;;1.52;0.60;;;20.70;92.70;;;;;;4990839;28;20084;-71
2021/03/10 08:55:28;;;;;;;0.88;0.45;;;20.70;92.70;;;;;;4989686;28;20029;-70
2021/03/10 08:57:55;;;;;;;4.50;1.55;;;20.70;92.80;;;;;;4986176;28;20181;-71
2021/03/10 09:00:26;;;;;;;7.38;1.35;;;20.70;92.90;;;;;;4989884;28;20034;-71
2021/03/10 09:02:53;;;;;;;4.05;0.68;;;20.70;93.00;;;;;;4989502;28;20045;-71
2021/03/10 09:05:27;;;;;;;4.55;1.05;;;20.60;93.10;;;;;;4986910;28;20041;-71
2021/03/10 09:07:55;;;;;;;10.77;1.48;;;20.60;93.30;;;;;;4986290;28;20022;-70
2021/03/10 09:10:23;;;;;;;5.55;2.42;;;20.60;93.40;;;;;;4986157;28;20120;-69
2021/03/10 09:12:52;;;;;;;2.40;1.33;;;20.60;93.30;;;;;;4990592;28;20026;-70
2021/03/10 09:15:26;;;;;;;3.42;1.73;;;20.70;93.40;;;;;;4987335;28;20027;-70
2021/03/10 09:17:58;;;;;;;11.70;9.65;;;20.70;93.40;;;;;;4988735;28;20030;-70
2021/03/10 09:20:32;;;;;;;6.35;3.35;;;20.70;93.50;;;;;;4987224;28;20120;-70
2021/03/10 09:23:00;;;;;;;3.60;1.23;;;20.70;93.60;;;;;;4987146;28;20099;-70
2021/03/10 09:25:37;;;;;;;4.25;2.00;;;20.70;93.60;;;;;;4992024;28;20060;-70
2021/03/10 09:28:10;;;;;;;4.22;1.63;;;20.70;93.90;;;;;;4985027;28;20022;-69
2021/03/10 09:30:40;;;;;;;10.50;3.58;;;20.70;93.80;;;;;;4990664;28;20018;-69
2021/03/10 09:33:24;;;;;;;3.95;1.45;;;20.70;93.80;;;;;;4990071;28;20022;-69
2021/03/10 09:35:54;;;;;;;5.78;2.05;;;20.70;93.90;;;;;;4988894;28;20453;-69
2021/03/10 09:38:22;;;;;;;15.63;2.10;;;20.70;93.80;;;;;;4986442;28;20076;-68
2021/03/10 09:40:56;;;;;;;8.27;2.75;;;20.70;93.90;;;;;;4987185;28;20120;-67
2021/03/10 09:43:27;;;;;;;5.82;1.92;;;20.70;94.00;;;;;;4987545;28;20409;-69
2021/03/10 09:46:12;;;;;;;5.57;1.50;;;20.70;94.10;;;;;;4989595;28;20033;-67
2021/03/10 09:48:40;;;;;;;4.05;1.02;;;20.70;94.10;;;;;;4989102;28;20034;-66
2021/03/10 09:51:09;;;;;;;7.22;1.77;;;20.70;94.20;;;;;;4989745;28;20022;-68
2021/03/10 09:53:44;;;;;;;4.78;1.20;;;20.60;94.30;;;;;;4993265;28;20022;-68
2021/03/10 09:56:15;;;;;;;2.42;0.82;;;20.70;94.30;;;;;;4989818;28;20561;-69
2021/03/10 09:58:56;;;;;;;0.82;0.60;;;20.70;94.40;;;;;;4990830;28;20539;-70
2021/03/10 10:01:24;;;;;;;2.00;0.65;;;20.70;94.50;;;;;;4989372;28;20031;-70
2021/03/10 10:03:51;;;;;;;2.42;1.05;;;20.70;94.40;;;;;;4988419;28;20024;-70
2021/03/10 10:06:19;;;;;;;2.40;0.95;;;20.70;94.40;;;;;;4989174;28;20158;-70
2021/03/10 10:08:49;;;;;;;2.65;1.20;;;20.70;94.50;;;;;;4984966;28;20026;-71
2021/03/10 10:11:17;;;;;;;1.48;0.93;;;20.80;94.50;;;;;;4989893;28;20486;-71
2021/03/10 10:13:48;;;;;;;2.38;0.90;;;20.80;94.50;;;;;;4988522;28;20026;-70
2021/03/10 10:16:15;;;;;;;1.65;0.93;;;20.80;94.50;;;;;;4980106;28;20026;-70
2021/03/10 10:18:43;;;;;;;2.83;0.80;;;20.80;94.50;;;;;;4987357;28;20015;-70
2021/03/10 10:21:09;;;;;;;5.47;1.83;;;20.80;94.50;;;;;;4987443;28;20054;-70
2021/03/10 10:23:36;;;;;;;6.03;1.90;;;20.90;94.60;;;;;;4988947;28;20389;-70
2021/03/10 10:26:03;;;;;;;7.97;1.90;;;20.80;94.60;;;;;;4989338;28;20029;-69
2021/03/10 10:28:30;;;;;;;5.40;2.28;;;20.90;94.60;;;;;;4984883;28;20030;-69
2021/03/10 10:30:57;;;;;;;13.27;3.97;;;20.90;94.60;;;;;;4988299;28;20033;-69
2021/03/10 10:33:26;;;;;;;76.57;65.13;;;20.90;94.70;;;;;;5021430;28;20120;-69
2021/03/10 10:35:53;;;;;;;14.48;10.75;;;20.90;94.80;;;;;;4986029;28;20018;-70
2021/03/10 10:38:19;;;;;;;9.50;3.22;;;20.90;94.90;;;;;;4987162;28;20053;-71
2021/03/10 10:40:46;;;;;;;10.45;2.85;;;20.90;94.50;;;;;;4985302;28;20039;-70
2021/03/10 10:43:12;;;;;;;9.90;3.17;;;20.90;94.60;;;;;;4986752;28;20018;-70
2021/03/10 10:45:39;;;;;;;6.78;3.08;;;20.90;94.60;;;;;;4983189;28;20432;-70
2021/03/10 10:48:06;;;;;;;5.80;2.03;;;20.90;94.60;;;;;;4986688;28;20018;-70
2021/03/10 10:50:32;;;;;;;7.53;2.47;;;21.00;94.60;;;;;;4987496;28;20408;-70
2021/03/10 10:52:59;;;;;;;13.07;9.57;;;21.00;94.50;;;;;;4986392;28;20073;-70
2021/03/10 10:55:26;;;;;;;5.68;3.08;;;21.00;94.30;;;;;;4990029;28;20105;-71
2021/03/10 10:57:53;;;;;;;8.20;2.88;;;21.00;94.40;;;;;;5010174;28;20015;-71
2021/03/10 11:00:24;;;;;;;4.60;1.52;;;21.10;94.40;;;;;;4994108;28;20108;-71
2021/03/10 11:02:51;;;;;;;7.03;2.13;;;21.10;94.30;;;;;;4996702;28;20029;-71
2021/03/10 11:05:17;;;;;;;7.18;2.00;;;21.20;94.50;;;;;;4990588;28;20045;-71
2021/03/10 11:08:25;;;;;;;9.55;2.60;;;21.20;94.30;;;;;;4986652;28;20581;-70
2021/03/10 11:11:31;;;;;;;8.40;3.20;;;21.20;94.30;;;;;;4991340;28;20029;-71
2021/03/10 11:14:37;;;;;;;7.20;2.38;;;21.20;93.90;;;;;;4991505;28;20447;-71
2021/03/10 11:17:43;;;;;;;3.58;1.60;;;21.10;93.80;;;;;;4990198;28;20053;-71
2021/03/10 11:20:10;;;;;;;6.65;3.47;;;21.10;93.80;;;;;;4988738;28;20582;-71
2021/03/10 11:22:37;;;;;;;6.20;1.77;;;21.10;93.80;;;;;;4989989;28;20031;-71
2021/03/10 11:25:10;;;;;;;9.35;1.85;;;21.10;93.80;;;;;;4986468;28;20022;-71
2021/03/10 11:27:37;;;;;;;6.38;1.63;;;21.10;93.70;;;;;;4990113;28;20061;-71
2021/03/10 11:30:09;;;;;;;7.28;2.40;;;21.20;93.70;;;;;;4988036;28;20019;-72
2021/03/10 11:32:36;;;;;;;6.80;2.08;;;21.20;93.90;;;;;;4993675;28;20014;-72
2021/03/10 11:35:04;;;;;;;6.60;2.20;;;21.30;93.40;;;;;;4990823;28;20381;-72
2021/03/10 11:37:31;;;;;;;8.10;2.22;;;21.30;93.60;;;;;;4988908;28;20034;-72
2021/03/10 11:39:57;;;;;;;9.30;3.05;;;21.30;93.00;;;;;;4987495;28;20018;-72
2021/03/10 11:42:25;;;;;;;16.35;11.18;;;21.40;93.20;;;;;;4990247;28;20010;-72
2021/03/10 11:44:52;;;;;;;36.58;30.40;;;21.50;93.30;;;;;;4989758;28;20056;-73
2021/03/10 11:47:18;;;;;;;5.90;2.97;;;21.60;93.20;;;;;;4989681;28;20095;-72
2021/03/10 11:49:45;;;;;;;6.32;1.65;;;21.70;92.70;;;;;;4988199;28;20504;-74
2021/03/10 11:52:11;;;;;;;5.32;2.63;;;21.90;92.50;;;;;;4990239;28;20413;-72
2021/03/10 11:54:38;;;;;;;3.88;1.63;;;21.90;91.50;;;;;;4987071;28;20022;-73
2021/03/10 11:57:05;;;;;;;4.75;1.88;;;21.90;91.50;;;;;;4990707;28;20490;-73
2021/03/10 11:59:32;;;;;;;7.18;3.20;;;21.90;91.30;;;;;;4991269;28;20370;-73
2021/03/10 12:02:00;;;;;;;8.45;2.13;;;21.90;91.00;;;;;;4995170;28;20038;-73
2021/03/10 12:04:26;;;;;;;45.28;40.47;;;21.80;91.30;;;;;;4989627;28;20486;-73
2021/03/10 12:06:53;;;;;;;20.40;15.35;;;21.70;91.20;;;;;;4991157;28;20026;-74
2021/03/10 12:09:19;;;;;;;6.80;4.90;;;21.70;91.30;;;;;;4992849;28;20031;-72
2021/03/10 12:11:46;;;;;;;5.97;2.28;;;21.60;91.30;;;;;;4990013;28;20032;-73
2021/03/10 12:14:13;;;;;;;9.60;2.88;;;21.60;91.20;;;;;;4992619;28;20041;-74
2021/03/10 12:16:40;;;;;;;7.25;2.55;;;21.50;91.30;;;;;;4984352;28;20116;-74
2021/03/10 12:19:07;;;;;;;4.50;2.42;;;21.50;91.40;;;;;;4987249;28;20181;-73
2021/03/10 12:21:33;;;;;;;5.95;2.15;;;21.40;91.30;;;;;;4985996;28;20485;-73
2021/03/10 12:24:00;;;;;;;10.43;3.08;;;21.40;91.40;;;;;;4995249;28;20018;-74
2021/03/10 12:26:26;;;;;;;7.32;2.63;;;21.40;91.70;;;;;;4992208;28;20109;-73
2021/03/10 12:28:53;;;;;;;7.20;2.60;;;21.40;91.60;;;;;;4989215;28;20027;-72
2021/03/10 12:31:19;;;;;;;13.88;2.55;;;21.40;91.70;;;;;;4985914;28;20038;-73
2021/03/10 12:33:46;;;;;;;8.50;2.45;;;21.40;91.60;;;;;;4987553;28;20015;-73
2021/03/10 12:36:12;;;;;;;3.53;1.80;;;21.50;91.50;;;;;;4988481;28;20018;-73
2021/03/10 12:38:38;;;;;;;8.07;3.55;;;21.50;91.40;;;;;;4985628;28;20455;-73
2021/03/10 12:41:05;;;;;;;4.90;2.58;;;21.70;91.40;;;;;;4986689;28;20031;-72
2021/03/10 12:43:31;;;;;;;4.38;1.67;;;21.70;90.70;;;;;;4989591;28;20030;-73
2021/03/10 12:45:58;;;;;;;5.78;2.10;;;21.80;90.60;;;;;;4989930;28;20024;-73
2021/03/10 12:48:25;;;;;;;7.88;2.47;;;21.80;90.50;;;;;;4989375;28;20377;-72
2021/03/10 12:50:51;;;;;;;7.55;3.42;;;21.80;90.30;;;;;;4986903;28;20413;-73
2021/03/10 12:53:18;;;;;;;6.30;1.85;;;21.90;90.60;;;;;;4991061;28;20611;-73
2021/03/10 12:55:44;;;;;;;10.93;2.60;;;21.90;90.10;;;;;;4986410;28;20038;-74
2021/03/10 12:58:11;;;;;;;6.03;1.88;;;22.00;90.10;;;;;;5004536;28;20416;-73
2021/03/10 13:00:39;;;;;;;6.38;2.05;;;22.00;89.60;;;;;;4987704;28;20042;-73
2021/03/10 13:03:05;;;;;;;6.75;3.10;;;22.00;89.60;;;;;;4996367;28;20034;-73
2021/03/10 13:05:32;;;;;;;4.15;1.67;;;22.00;89.20;;;;;;4989236;28;20030;-72
2021/03/10 13:07:58;;;;;;;5.88;2.13;;;21.90;89.10;;;;;;4989594;28;20029;-73
2021/03/10 13:10:25;;;;;;;5.18;1.60;;;21.80;89.50;;;;;;4999255;28;20476;-73
2021/03/10 13:12:51;;;;;;;6.93;2.10;;;21.80;89.90;;;;;;4988306;28;20413;-73
2021/03/10 13:15:18;;;;;;;9.25;2.00;;;21.80;89.90;;;;;;4990708;28;20385;-73